Launceston, Australia
Current Conditions -  °F | °C
As of 2:00 PM on Saturday 25 Oct 2014 (Local Time) from YMLT Reporting Station
Scattered Clouds Scattered Clouds  
Wind Chill: 70°   Ceiling: Unl
Heat Index: 70°   Visibility: 6mi
Dew Point: 50°   Wind: 7mph
Humidity: 49%   Direction: 300°WNW
Pressure: 29.91"   Gusts: NA
Location:  41.44°S, 147.14°E
Report Text: YMLT 250300Z AUTO 30006KT 9999 // SCT048 21/10 Q1013
Loading
Personal Weather Stations






























Interactive Weather Map
Tropical Storm Tracking
New forecast layout! Learn more

10-Day Weather Forecast

Advertisements
Track Severe Weather on mobile